This is the latest recevied weather packets stored in our database for station/object F4AMY-13. If no packets are shown the sender has not sent any weather packets the latest 10 day(s).
| Time | Temp. | Humidity | Pressure | Rain* | Wind** | Luminosity | Snow |
|---|---|---|---|---|---|---|---|
| 1776943378 | 22.22° C | 44% | 1020.3 hPa | 0 mm | 211 m/s, ° | 472 W/m² | - |
| 1776943078 | 21.67° C | 46% | 1020.5 hPa | 0 mm | 213.24 m/s, ° | 477 W/m² | - |
| 1776942778 | 21.67° C | 44% | 1020.5 hPa | 0 mm | 209.66 m/s, ° | 469 W/m² | - |
| 1776942478 | 21.11° C | 45% | 1020.4 hPa | 0 mm | 211.9 m/s, ° | 474 W/m² | - |
| 1776942178 | 21.11° C | 46% | 1020.5 hPa | 0 mm | 208.77 m/s, ° | 467 W/m² | - |
| 1776941878 | 21.11° C | 48% | 1020.9 hPa | 0 mm | 179.71 m/s, ° | 402 W/m² | - |
| 1776941578 | 20.56° C | 47% | 1020.5 hPa | 0 mm | 205.64 m/s, ° | 460 W/m² | - |
| 1776941278 | 20.56° C | 46% | 1020.5 hPa | 0 mm | 80.02 m/s, ° | 179 W/m² | - |
| 1776940978 | 20.56° C | 47% | 1020.6 hPa | 0 mm | 63.93 m/s, ° | 143 W/m² | - |
| 1776940678 | 20° C | 46% | 1020.7 hPa | 0 mm | 135.45 m/s, ° | 303 W/m² | - |
| 1776940378 | 20° C | 47% | 1020.7 hPa | 0 mm | 103.27 m/s, ° | 231 W/m² | - |
| 1776940078 | 20° C | 50% | 1020.6 hPa | 0 mm | 71.97 m/s, ° | 161 W/m² | - |
| 1776939778 | 20° C | 46% | 1020.6 hPa | 0 mm | 61.69 m/s, ° | 138 W/m² | - |
| 1776939478 | 19.44° C | 49% | 1020.8 hPa | 0 mm | 38 m/s, ° | 85 W/m² | - |
| 1776939178 | 19.44° C | 47% | 1020.9 hPa | 0 mm | 42.92 m/s, ° | 96 W/m² | - |
| 1776938877 | 19.44° C | 51% | 1020.9 hPa | 0 mm | 25.48 m/s, ° | 57 W/m² | - |
| 1776938577 | 19.44° C | 53% | 1020.8 hPa | 0 mm | 24.14 m/s, ° | 54 W/m² | - |
| 1776938277 | 18.89° C | 49% | 1020.6 hPa | 0 mm | 29.06 m/s, ° | 65 W/m² | - |
| 1776937977 | 18.89° C | 48% | 1020.8 hPa | 0 mm | 24.59 m/s, ° | 55 W/m² | - |
| 1776937677 | 18.89° C | 49% | 1020.9 hPa | 0 mm | 21.46 m/s, ° | 48 W/m² | - |
| 1776937377 | 18.89° C | 52% | 1020.7 hPa | 0 mm | 20.56 m/s, ° | 46 W/m² | - |
| 1776937077 | 18.33° C | 51% | 1020.9 hPa | 0 mm | 34.42 m/s, ° | 77 W/m² | - |
| 1776936777 | 18.33° C | 54% | 1020.9 hPa | 0 mm | 21.01 m/s, ° | 47 W/m² | - |
| 1776936477 | 18.33° C | 51% | 1021 hPa | 0 mm | 20.12 m/s, ° | 45 W/m² | - |
| 1776936177 | 18.33° C | 53% | 1020.7 hPa | 0 mm | 19.67 m/s, ° | 44 W/m² | - |
* Rain latest hour (hover to see other rain measurements)
** Current wind speed in m/s (hover to see current wind gust speed)